sensor_id;sensor_type;location;lat;lon;timestamp;P1;durP1;ratioP1;P2;durP2;ratioP2
14021;SDS011;7086;48.116;11.580;2023-02-16T00:39:36;12.30;;;11.10;;
14021;SDS011;7086;48.116;11.580;2023-02-16T00:42:16;17.27;;;11.63;;
14021;SDS011;7086;48.116;11.580;2023-02-16T00:44:59;12.10;;;9.85;;
14021;SDS011;7086;48.116;11.580;2023-02-16T00:47:29;13.55;;;10.35;;
14021;SDS011;7086;48.116;11.580;2023-02-16T00:50:02;11.15;;;9.98;;
14021;SDS011;7086;48.116;11.580;2023-02-16T00:52:39;11.43;;;10.13;;
14021;SDS011;7086;48.116;11.580;2023-02-16T00:55:12;12.25;;;10.60;;
14021;SDS011;7086;48.116;11.580;2023-02-16T00:57:44;11.35;;;9.93;;
14021;SDS011;7086;48.116;11.580;2023-02-16T01:00:22;10.68;;;9.55;;
14021;SDS011;7086;48.116;11.580;2023-02-16T01:02:54;11.60;;;9.38;;
14021;SDS011;7086;48.116;11.580;2023-02-16T01:05:28;11.00;;;9.43;;
14021;SDS011;7086;48.116;11.580;2023-02-16T01:07:56;10.30;;;9.30;;
14021;SDS011;7086;48.116;11.580;2023-02-16T01:10:44;9.68;;;8.75;;
14021;SDS011;7086;48.116;11.580;2023-02-16T01:13:31;9.38;;;8.38;;
14021;SDS011;7086;48.116;11.580;2023-02-16T01:21:31;8.77;;;7.88;;
14021;SDS011;7086;48.116;11.580;2023-02-16T01:24:07;8.30;;;7.40;;
14021;SDS011;7086;48.116;11.580;2023-02-16T01:26:38;9.38;;;8.00;;
14021;SDS011;7086;48.116;11.580;2023-02-16T01:29:23;9.45;;;8.45;;
14021;SDS011;7086;48.116;11.580;2023-02-16T01:32:08;9.75;;;8.73;;
14021;SDS011;7086;48.116;11.580;2023-02-16T01:34:41;9.68;;;8.75;;
14021;SDS011;7086;48.116;11.580;2023-02-16T01:37:33;12.27;;;9.02;;
14021;SDS011;7086;48.116;11.580;2023-02-16T01:47:00;9.15;;;8.27;;
14021;SDS011;7086;48.116;11.580;2023-02-16T01:49:35;9.32;;;8.43;;
14021;SDS011;7086;48.116;11.580;2023-02-16T01:52:12;11.57;;;10.20;;
14021;SDS011;7086;48.116;11.580;2023-02-16T01:54:58;11.15;;;9.63;;
14021;SDS011;7086;48.116;11.580;2023-02-16T01:57:49;11.43;;;10.02;;
14021;SDS011;7086;48.116;11.580;2023-02-16T02:04:20;10.20;;;9.25;;
14021;SDS011;7086;48.116;11.580;2023-02-16T02:07:14;9.52;;;8.18;;
14021;SDS011;7086;48.116;11.580;2023-02-16T02:10:06;10.02;;;8.93;;
14021;SDS011;7086;48.116;11.580;2023-02-16T02:12:59;9.88;;;8.88;;
14021;SDS011;7086;48.116;11.580;2023-02-16T02:15:35;10.82;;;9.20;;
14021;SDS011;7086;48.116;11.580;2023-02-16T02:18:16;10.07;;;9.10;;
14021;SDS011;7086;48.116;11.580;2023-02-16T02:21:08;10.07;;;8.50;;
14021;SDS011;7086;48.116;11.580;2023-02-16T02:24:29;9.90;;;8.98;;
14021;SDS011;7086;48.116;11.580;2023-02-16T02:27:44;9.65;;;7.97;;
14021;SDS011;7086;48.116;11.580;2023-02-16T02:30:33;9.57;;;8.35;;
14021;SDS011;7086;48.116;11.580;2023-02-16T02:33:22;9.77;;;8.70;;
14021;SDS011;7086;48.116;11.580;2023-02-16T02:36:10;10.45;;;8.95;;
14021;SDS011;7086;48.116;11.580;2023-02-16T02:38:55;9.80;;;8.80;;
14021;SDS011;7086;48.116;11.580;2023-02-16T02:41:35;10.27;;;9.15;;
14021;SDS011;7086;48.116;11.580;2023-02-16T02:44:35;10.27;;;8.95;;
14021;SDS011;7086;48.116;11.580;2023-02-16T02:47:11;11.15;;;9.70;;
14021;SDS011;7086;48.116;11.580;2023-02-16T02:49:47;14.45;;;11.13;;
14021;SDS011;7086;48.116;11.580;2023-02-16T02:52:16;12.05;;;9.88;;
14021;SDS011;7086;48.116;11.580;2023-02-16T02:54:44;18.10;;;10.65;;
14021;SDS011;7086;48.116;11.580;2023-02-16T02:57:32;12.30;;;9.02;;
14021;SDS011;7086;48.116;11.580;2023-02-16T03:00:42;12.45;;;8.93;;
14021;SDS011;7086;48.116;11.580;2023-02-16T03:03:26;10.23;;;8.52;;
14021;SDS011;7086;48.116;11.580;2023-02-16T03:06:39;10.30;;;9.02;;
14021;SDS011;7086;48.116;11.580;2023-02-16T03:09:14;8.90;;;8.10;;
14021;SDS011;7086;48.116;11.580;2023-02-16T03:12:10;9.63;;;8.63;;
14021;SDS011;7086;48.116;11.580;2023-02-16T03:15:11;9.52;;;8.60;;
14021;SDS011;7086;48.116;11.580;2023-02-16T03:17:49;9.57;;;8.57;;
14021;SDS011;7086;48.116;11.580;2023-02-16T03:20:40;10.75;;;9.65;;
14021;SDS011;7086;48.116;11.580;2023-02-16T03:23:27;10.43;;;7.15;;
14021;SDS011;7086;48.116;11.580;2023-02-16T03:26:13;10.55;;;8.90;;
14021;SDS011;7086;48.116;11.580;2023-02-16T03:29:01;9.52;;;8.57;;
14021;SDS011;7086;48.116;11.580;2023-02-16T03:31:51;9.00;;;8.10;;
14021;SDS011;7086;48.116;11.580;2023-02-16T03:34:23;9.88;;;7.60;;
14021;SDS011;7086;48.116;11.580;2023-02-16T03:36:53;10.85;;;7.68;;
14021;SDS011;7086;48.116;11.580;2023-02-16T03:39:39;7.88;;;7.18;;
14021;SDS011;7086;48.116;11.580;2023-02-16T03:42:21;9.20;;;6.82;;
14021;SDS011;7086;48.116;11.580;2023-02-16T03:44:54;9.20;;;6.53;;
14021;SDS011;7086;48.116;11.580;2023-02-16T03:48:04;6.38;;;5.80;;
14021;SDS011;7086;48.116;11.580;2023-02-16T03:51:20;6.68;;;5.90;;
14021;SDS011;7086;48.116;11.580;2023-02-16T03:54:10;6.55;;;6.05;;
14021;SDS011;7086;48.116;11.580;2023-02-16T03:57:09;6.82;;;5.85;;
14021;SDS011;7086;48.116;11.580;2023-02-16T03:59:59;8.40;;;6.90;;
14021;SDS011;7086;48.116;11.580;2023-02-16T04:02:38;8.02;;;6.15;;
14021;SDS011;7086;48.116;11.580;2023-02-16T04:05:06;8.13;;;6.50;;
14021;SDS011;7086;48.116;11.580;2023-02-16T04:07:35;6.47;;;5.88;;
14021;SDS011;7086;48.116;11.580;2023-02-16T04:10:03;7.53;;;6.72;;
14021;SDS011;7086;48.116;11.580;2023-02-16T04:12:32;7.40;;;6.45;;
14021;SDS011;7086;48.116;11.580;2023-02-16T04:15:02;8.20;;;6.63;;
14021;SDS011;7086;48.116;11.580;2023-02-16T04:17:35;7.80;;;7.05;;
14021;SDS011;7086;48.116;11.580;2023-02-16T04:20:03;15.70;;;10.63;;
14021;SDS011;7086;48.116;11.580;2023-02-16T04:22:33;8.70;;;6.43;;
14021;SDS011;7086;48.116;11.580;2023-02-16T04:25:02;6.90;;;6.20;;
14021;SDS011;7086;48.116;11.580;2023-02-16T04:27:31;5.88;;;5.47;;
14021;SDS011;7086;48.116;11.580;2023-02-16T04:29:59;6.07;;;5.57;;
14021;SDS011;7086;48.116;11.580;2023-02-16T04:32:27;5.97;;;5.43;;
14021;SDS011;7086;48.116;11.580;2023-02-16T04:34:55;6.50;;;5.90;;
14021;SDS011;7086;48.116;11.580;2023-02-16T04:40:45;5.57;;;4.97;;
14021;SDS011;7086;48.116;11.580;2023-02-16T04:43:14;5.55;;;4.38;;
14021;SDS011;7086;48.116;11.580;2023-02-16T04:45:42;7.45;;;5.63;;
14021;SDS011;7086;48.116;11.580;2023-02-16T04:48:10;6.68;;;5.18;;
14021;SDS011;7086;48.116;11.580;2023-02-16T04:50:37;8.63;;;6.75;;
14021;SDS011;7086;48.116;11.580;2023-02-16T04:53:06;7.15;;;6.35;;
14021;SDS011;7086;48.116;11.580;2023-02-16T04:55:34;11.15;;;8.98;;
14021;SDS011;7086;48.116;11.580;2023-02-16T04:58:02;7.90;;;6.50;;
14021;SDS011;7086;48.116;11.580;2023-02-16T05:00:29;7.88;;;7.07;;
14021;SDS011;7086;48.116;11.580;2023-02-16T05:05:41;6.70;;;6.10;;
14021;SDS011;7086;48.116;11.580;2023-02-16T05:11:43;11.25;;;7.97;;
14021;SDS011;7086;48.116;11.580;2023-02-16T05:14:29;7.40;;;6.68;;
14021;SDS011;7086;48.116;11.580;2023-02-16T05:17:10;13.63;;;7.25;;
14021;SDS011;7086;48.116;11.580;2023-02-16T05:19:45;7.30;;;6.20;;
14021;SDS011;7086;48.116;11.580;2023-02-16T05:22:16;11.15;;;6.85;;
14021;SDS011;7086;48.116;11.580;2023-02-16T05:24:45;8.43;;;7.45;;
14021;SDS011;7086;48.116;11.580;2023-02-16T05:27:21;8.65;;;6.72;;
14021;SDS011;7086;48.116;11.580;2023-02-16T05:30:05;8.20;;;6.28;;
14021;SDS011;7086;48.116;11.580;2023-02-16T05:32:36;7.78;;;5.97;;
14021;SDS011;7086;48.116;11.580;2023-02-16T05:35:35;8.27;;;6.10;;
14021;SDS011;7086;48.116;11.580;2023-02-16T21:47:30;4.45;;;2.75;;
14021;SDS011;7086;48.116;11.580;2023-02-16T21:50:24;5.45;;;3.00;;
14021;SDS011;7086;48.116;11.580;2023-02-16T21:53:07;4.43;;;2.85;;
14021;SDS011;7086;48.116;11.580;2023-02-16T21:55:50;4.82;;;2.75;;
14021;SDS011;7086;48.116;11.580;2023-02-16T22:32:55;3.60;;;2.55;;
14021;SDS011;7086;48.116;11.580;2023-02-16T22:35:37;2.83;;;2.63;;
14021;SDS011;7086;48.116;11.580;2023-02-16T22:38:18;3.40;;;2.75;;
14021;SDS011;7086;48.116;11.580;2023-02-16T22:41:02;6.43;;;3.00;;
14021;SDS011;7086;48.116;11.580;2023-02-16T22:43:45;3.40;;;3.08;;
14021;SDS011;7086;48.116;11.580;2023-02-16T22:50:21;2.50;;;2.33;;
14021;SDS011;7086;48.116;11.580;2023-02-16T22:53:20;4.20;;;3.03;;
14021;SDS011;7086;48.116;11.580;2023-02-16T22:56:03;3.97;;;2.80;;
14021;SDS011;7086;48.116;11.580;2023-02-16T23:01:25;6.45;;;3.00;;
14021;SDS011;7086;48.116;11.580;2023-02-16T23:03:57;3.22;;;2.80;;
14021;SDS011;7086;48.116;11.580;2023-02-16T23:19:49;4.95;;;3.30;;
14021;SDS011;7086;48.116;11.580;2023-02-16T23:22:17;4.07;;;3.17;;
14021;SDS011;7086;48.116;11.580;2023-02-16T23:25:01;3.40;;;3.13;;
14021;SDS011;7086;48.116;11.580;2023-02-16T23:27:46;3.88;;;3.13;;
14021;SDS011;7086;48.116;11.580;2023-02-16T23:30:30;3.25;;;3.05;;
14021;SDS011;7086;48.116;11.580;2023-02-16T23:33:01;3.50;;;3.20;;
14021;SDS011;7086;48.116;11.580;2023-02-16T23:35:45;4.30;;;3.13;;
14021;SDS011;7086;48.116;11.580;2023-02-16T23:38:26;3.15;;;2.78;;
14021;SDS011;7086;48.116;11.580;2023-02-16T23:40:55;4.72;;;3.38;;
14021;SDS011;7086;48.116;11.580;2023-02-16T23:43:23;3.05;;;2.78;;
14021;SDS011;7086;48.116;11.580;2023-02-16T23:45:52;3.63;;;3.08;;
14021;SDS011;7086;48.116;11.580;2023-02-16T23:48:22;3.83;;;3.42;;
14021;SDS011;7086;48.116;11.580;2023-02-16T23:50:55;3.03;;;2.83;;
14021;SDS011;7086;48.116;11.580;2023-02-16T23:53:25;4.30;;;3.28;;
14021;SDS011;7086;48.116;11.580;2023-02-16T23:55:55;20.38;;;13.23;;
14021;SDS011;7086;48.116;11.580;2023-02-16T23:58:25;11.63;;;8.82;;
